sensor_id;sensor_type;location;lat;lon;timestamp;temperature;humidity
10278;DHT22;5184;51.376;7.148;2023-07-31T00:02:20;15.50;99.90
10278;DHT22;5184;51.376;7.148;2023-07-31T00:04:46;15.50;99.90
10278;DHT22;5184;51.376;7.148;2023-07-31T00:07:13;15.50;99.90
10278;DHT22;5184;51.376;7.148;2023-07-31T00:09:40;15.50;99.90
10278;DHT22;5184;51.376;7.148;2023-07-31T00:12:07;15.50;99.90
10278;DHT22;5184;51.376;7.148;2023-07-31T00:14:35;15.50;99.90
10278;DHT22;5184;51.376;7.148;2023-07-31T00:17:02;15.50;99.90
10278;DHT22;5184;51.376;7.148;2023-07-31T00:19:29;15.50;99.90
10278;DHT22;5184;51.376;7.148;2023-07-31T00:21:55;15.60;99.90
10278;DHT22;5184;51.376;7.148;2023-07-31T00:24:22;15.60;99.90
10278;DHT22;5184;51.376;7.148;2023-07-31T00:26:48;15.60;99.90
10278;DHT22;5184;51.376;7.148;2023-07-31T00:29:16;15.60;99.90
10278;DHT22;5184;51.376;7.148;2023-07-31T00:31:43;15.60;99.90
10278;DHT22;5184;51.376;7.148;2023-07-31T00:34:10;15.50;99.90
10278;DHT22;5184;51.376;7.148;2023-07-31T00:36:36;15.60;99.90
10278;DHT22;5184;51.376;7.148;2023-07-31T00:39:03;15.60;99.90
10278;DHT22;5184;51.376;7.148;2023-07-31T00:41:30;15.60;99.90
10278;DHT22;5184;51.376;7.148;2023-07-31T00:43:58;15.60;99.90
10278;DHT22;5184;51.376;7.148;2023-07-31T00:46:24;15.50;99.90
10278;DHT22;5184;51.376;7.148;2023-07-31T00:48:51;15.60;99.90
10278;DHT22;5184;51.376;7.148;2023-07-31T00:51:17;15.60;99.90
10278;DHT22;5184;51.376;7.148;2023-07-31T00:53:44;15.60;99.90
10278;DHT22;5184;51.376;7.148;2023-07-31T00:56:11;15.60;99.90
10278;DHT22;5184;51.376;7.148;2023-07-31T00:58:38;15.60;99.90
10278;DHT22;5184;51.376;7.148;2023-07-31T01:01:05;15.60;99.90
10278;DHT22;5184;51.376;7.148;2023-07-31T01:03:32;15.60;99.90
10278;DHT22;5184;51.376;7.148;2023-07-31T01:06:15;15.50;99.90
10278;DHT22;5184;51.376;7.148;2023-07-31T01:09:08;15.60;99.90
10278;DHT22;5184;51.376;7.148;2023-07-31T01:11:31;15.60;99.90
10278;DHT22;5184;51.376;7.148;2023-07-31T01:13:57;15.60;99.90
10278;DHT22;5184;51.376;7.148;2023-07-31T01:16:24;15.60;99.90
10278;DHT22;5184;51.376;7.148;2023-07-31T01:18:50;15.60;99.90
10278;DHT22;5184;51.376;7.148;2023-07-31T01:21:22;15.60;99.90
10278;DHT22;5184;51.376;7.148;2023-07-31T01:24:08;15.60;99.90
10278;DHT22;5184;51.376;7.148;2023-07-31T01:26:36;15.60;99.90
10278;DHT22;5184;51.376;7.148;2023-07-31T01:29:07;15.60;99.90
10278;DHT22;5184;51.376;7.148;2023-07-31T01:31:30;15.60;99.90
10278;DHT22;5184;51.376;7.148;2023-07-31T01:33:58;15.60;99.90
10278;DHT22;5184;51.376;7.148;2023-07-31T01:36:24;15.60;99.90
10278;DHT22;5184;51.376;7.148;2023-07-31T01:38:50;15.60;99.90
10278;DHT22;5184;51.376;7.148;2023-07-31T01:41:17;15.60;99.90
10278;DHT22;5184;51.376;7.148;2023-07-31T01:43:46;15.60;99.90
10278;DHT22;5184;51.376;7.148;2023-07-31T01:46:12;15.60;99.90
10278;DHT22;5184;51.376;7.148;2023-07-31T01:48:40;15.60;99.90
10278;DHT22;5184;51.376;7.148;2023-07-31T01:51:07;15.60;99.90
10278;DHT22;5184;51.376;7.148;2023-07-31T01:53:34;15.60;99.90
10278;DHT22;5184;51.376;7.148;2023-07-31T01:56:00;15.60;99.90
10278;DHT22;5184;51.376;7.148;2023-07-31T01:58:27;15.60;99.90
10278;DHT22;5184;51.376;7.148;2023-07-31T02:00:54;15.60;99.90
10278;DHT22;5184;51.376;7.148;2023-07-31T02:03:22;15.60;99.90
10278;DHT22;5184;51.376;7.148;2023-07-31T02:05:49;15.60;99.90
10278;DHT22;5184;51.376;7.148;2023-07-31T02:08:17;15.60;99.90
10278;DHT22;5184;51.376;7.148;2023-07-31T02:10:44;15.60;99.90
10278;DHT22;5184;51.376;7.148;2023-07-31T02:13:11;15.60;99.90
10278;DHT22;5184;51.376;7.148;2023-07-31T02:15:37;15.60;99.90
10278;DHT22;5184;51.376;7.148;2023-07-31T02:18:04;15.60;99.90
10278;DHT22;5184;51.376;7.148;2023-07-31T02:20:33;15.60;99.90
10278;DHT22;5184;51.376;7.148;2023-07-31T02:23:00;15.60;99.90
10278;DHT22;5184;51.376;7.148;2023-07-31T02:25:26;15.60;99.90
10278;DHT22;5184;51.376;7.148;2023-07-31T02:27:53;15.60;99.90
10278;DHT22;5184;51.376;7.148;2023-07-31T02:30:19;15.60;99.90
10278;DHT22;5184;51.376;7.148;2023-07-31T02:32:48;15.60;99.90
10278;DHT22;5184;51.376;7.148;2023-07-31T02:35:15;15.60;99.90
10278;DHT22;5184;51.376;7.148;2023-07-31T02:37:42;15.50;99.90
10278;DHT22;5184;51.376;7.148;2023-07-31T02:40:08;15.60;99.90
10278;DHT22;5184;51.376;7.148;2023-07-31T02:42:35;15.60;99.90
10278;DHT22;5184;51.376;7.148;2023-07-31T02:45:02;15.60;99.90
10278;DHT22;5184;51.376;7.148;2023-07-31T02:47:28;15.60;99.90
10278;DHT22;5184;51.376;7.148;2023-07-31T02:49:56;15.70;99.90
10278;DHT22;5184;51.376;7.148;2023-07-31T02:52:23;15.70;99.90
10278;DHT22;5184;51.376;7.148;2023-07-31T02:54:50;15.70;99.90
10278;DHT22;5184;51.376;7.148;2023-07-31T02:57:16;15.60;99.90
10278;DHT22;5184;51.376;7.148;2023-07-31T02:59:43;15.60;99.90
10278;DHT22;5184;51.376;7.148;2023-07-31T03:02:10;15.60;99.90
10278;DHT22;5184;51.376;7.148;2023-07-31T03:04:38;15.70;99.90
10278;DHT22;5184;51.376;7.148;2023-07-31T03:07:05;15.70;99.90
10278;DHT22;5184;51.376;7.148;2023-07-31T03:09:32;15.70;99.90
10278;DHT22;5184;51.376;7.148;2023-07-31T03:11:58;15.70;99.90
10278;DHT22;5184;51.376;7.148;2023-07-31T03:14:25;15.70;99.90
10278;DHT22;5184;51.376;7.148;2023-07-31T03:16:52;15.70;99.90
10278;DHT22;5184;51.376;7.148;2023-07-31T03:19:18;15.70;99.90
10278;DHT22;5184;51.376;7.148;2023-07-31T03:21:46;15.70;99.90
10278;DHT22;5184;51.376;7.148;2023-07-31T03:24:13;15.70;99.90
10278;DHT22;5184;51.376;7.148;2023-07-31T03:26:41;15.70;99.90
10278;DHT22;5184;51.376;7.148;2023-07-31T03:29:08;15.70;99.90
10278;DHT22;5184;51.376;7.148;2023-07-31T03:31:35;15.80;99.90
10278;DHT22;5184;51.376;7.148;2023-07-31T03:34:02;15.80;99.90
10278;DHT22;5184;51.376;7.148;2023-07-31T03:36:29;15.90;99.90
10278;DHT22;5184;51.376;7.148;2023-07-31T03:38:57;15.90;99.90
10278;DHT22;5184;51.376;7.148;2023-07-31T03:41:23;15.90;99.90
10278;DHT22;5184;51.376;7.148;2023-07-31T03:43:50;15.90;99.90
10278;DHT22;5184;51.376;7.148;2023-07-31T03:46:16;16.00;99.90
10278;DHT22;5184;51.376;7.148;2023-07-31T03:48:43;16.00;99.90
10278;DHT22;5184;51.376;7.148;2023-07-31T03:51:10;16.00;99.90
10278;DHT22;5184;51.376;7.148;2023-07-31T03:53:37;16.00;99.90
10278;DHT22;5184;51.376;7.148;2023-07-31T03:56:04;16.10;99.90
10278;DHT22;5184;51.376;7.148;2023-07-31T03:58:31;16.10;99.90
10278;DHT22;5184;51.376;7.148;2023-07-31T04:00:57;16.10;99.90
10278;DHT22;5184;51.376;7.148;2023-07-31T04:03:24;16.10;99.90
10278;DHT22;5184;51.376;7.148;2023-07-31T04:05:53;16.10;99.90
10278;DHT22;5184;51.376;7.148;2023-07-31T04:08:19;16.10;99.90
10278;DHT22;5184;51.376;7.148;2023-07-31T04:10:46;16.10;99.90
10278;DHT22;5184;51.376;7.148;2023-07-31T04:13:13;16.10;99.90
10278;DHT22;5184;51.376;7.148;2023-07-31T04:15:39;16.10;99.90
10278;DHT22;5184;51.376;7.148;2023-07-31T04:18:06;16.10;99.90
10278;DHT22;5184;51.376;7.148;2023-07-31T04:20:33;16.10;99.90
10278;DHT22;5184;51.376;7.148;2023-07-31T04:22:59;16.10;99.90
10278;DHT22;5184;51.376;7.148;2023-07-31T04:25:26;16.10;99.90
10278;DHT22;5184;51.376;7.148;2023-07-31T04:27:53;16.10;99.90
10278;DHT22;5184;51.376;7.148;2023-07-31T04:30:20;16.20;99.90
10278;DHT22;5184;51.376;7.148;2023-07-31T04:32:46;16.20;99.90
10278;DHT22;5184;51.376;7.148;2023-07-31T04:35:13;16.20;99.90
10278;DHT22;5184;51.376;7.148;2023-07-31T04:37:39;16.20;99.90
10278;DHT22;5184;51.376;7.148;2023-07-31T04:40:07;16.10;99.90
10278;DHT22;5184;51.376;7.148;2023-07-31T04:42:34;16.10;99.90
10278;DHT22;5184;51.376;7.148;2023-07-31T04:45:00;16.00;99.90
10278;DHT22;5184;51.376;7.148;2023-07-31T04:47:27;16.00;99.90
10278;DHT22;5184;51.376;7.148;2023-07-31T04:49:54;16.00;99.90
10278;DHT22;5184;51.376;7.148;2023-07-31T04:52:21;15.90;99.90
10278;DHT22;5184;51.376;7.148;2023-07-31T04:54:48;15.90;99.90
10278;DHT22;5184;51.376;7.148;2023-07-31T04:57:15;15.90;99.90
10278;DHT22;5184;51.376;7.148;2023-07-31T04:59:42;15.90;99.90
10278;DHT22;5184;51.376;7.148;2023-07-31T05:02:08;15.90;99.90
10278;DHT22;5184;51.376;7.148;2023-07-31T05:04:36;16.00;99.90
10278;DHT22;5184;51.376;7.148;2023-07-31T05:07:03;16.00;99.90
10278;DHT22;5184;51.376;7.148;2023-07-31T05:09:30;16.00;99.90
10278;DHT22;5184;51.376;7.148;2023-07-31T05:11:57;16.00;99.90
10278;DHT22;5184;51.376;7.148;2023-07-31T05:14:25;16.10;99.90
10278;DHT22;5184;51.376;7.148;2023-07-31T05:16:52;16.10;99.90
10278;DHT22;5184;51.376;7.148;2023-07-31T05:19:19;16.20;99.90
10278;DHT22;5184;51.376;7.148;2023-07-31T05:21:47;16.20;99.90
10278;DHT22;5184;51.376;7.148;2023-07-31T05:24:13;16.20;99.90
10278;DHT22;5184;51.376;7.148;2023-07-31T05:26:40;16.20;99.90
10278;DHT22;5184;51.376;7.148;2023-07-31T05:29:06;16.20;99.90
10278;DHT22;5184;51.376;7.148;2023-07-31T05:31:34;16.20;99.90
10278;DHT22;5184;51.376;7.148;2023-07-31T05:34:00;16.20;99.90
10278;DHT22;5184;51.376;7.148;2023-07-31T05:36:27;16.20;99.90
10278;DHT22;5184;51.376;7.148;2023-07-31T05:38:53;16.20;99.90
10278;DHT22;5184;51.376;7.148;2023-07-31T05:41:20;16.20;99.90
10278;DHT22;5184;51.376;7.148;2023-07-31T05:43:47;16.30;99.90
10278;DHT22;5184;51.376;7.148;2023-07-31T05:46:14;16.20;99.90
10278;DHT22;5184;51.376;7.148;2023-07-31T05:48:41;16.20;99.90
10278;DHT22;5184;51.376;7.148;2023-07-31T05:51:07;16.20;99.90
10278;DHT22;5184;51.376;7.148;2023-07-31T05:53:34;16.20;99.90
10278;DHT22;5184;51.376;7.148;2023-07-31T05:56:00;16.20;99.90
10278;DHT22;5184;51.376;7.148;2023-07-31T05:58:27;16.30;99.90
10278;DHT22;5184;51.376;7.148;2023-07-31T06:00:54;16.30;99.90
10278;DHT22;5184;51.376;7.148;2023-07-31T06:03:22;16.30;99.90
10278;DHT22;5184;51.376;7.148;2023-07-31T06:05:48;16.10;99.90
10278;DHT22;5184;51.376;7.148;2023-07-31T06:08:15;16.40;99.90
10278;DHT22;5184;51.376;7.148;2023-07-31T06:10:42;16.40;99.90
10278;DHT22;5184;51.376;7.148;2023-07-31T06:13:08;16.40;99.90
10278;DHT22;5184;51.376;7.148;2023-07-31T06:15:35;16.40;99.90
10278;DHT22;5184;51.376;7.148;2023-07-31T06:18:02;16.50;99.90
10278;DHT22;5184;51.376;7.148;2023-07-31T06:20:29;16.50;99.90
10278;DHT22;5184;51.376;7.148;2023-07-31T06:22:56;16.50;99.90
10278;DHT22;5184;51.376;7.148;2023-07-31T06:25:23;16.60;99.90
10278;DHT22;5184;51.376;7.148;2023-07-31T06:27:49;16.60;99.90
10278;DHT22;5184;51.376;7.148;2023-07-31T06:30:16;16.60;99.90
10278;DHT22;5184;51.376;7.148;2023-07-31T06:32:42;16.60;99.90
10278;DHT22;5184;51.376;7.148;2023-07-31T06:35:09;16.50;99.90
10278;DHT22;5184;51.376;7.148;2023-07-31T06:37:36;16.50;99.90
10278;DHT22;5184;51.376;7.148;2023-07-31T06:40:02;16.50;99.90
10278;DHT22;5184;51.376;7.148;2023-07-31T06:42:29;16.50;99.90
10278;DHT22;5184;51.376;7.148;2023-07-31T06:44:56;16.50;99.90
10278;DHT22;5184;51.376;7.148;2023-07-31T06:47:22;16.50;99.90
10278;DHT22;5184;51.376;7.148;2023-07-31T06:49:49;16.40;99.90
10278;DHT22;5184;51.376;7.148;2023-07-31T06:52:15;16.40;99.90
10278;DHT22;5184;51.376;7.148;2023-07-31T06:54:42;16.40;99.90
10278;DHT22;5184;51.376;7.148;2023-07-31T06:57:09;16.30;99.90
10278;DHT22;5184;51.376;7.148;2023-07-31T06:59:36;16.30;99.90
10278;DHT22;5184;51.376;7.148;2023-07-31T07:02:04;16.30;99.90
10278;DHT22;5184;51.376;7.148;2023-07-31T07:04:30;16.20;99.90
10278;DHT22;5184;51.376;7.148;2023-07-31T07:06:57;16.20;99.90
10278;DHT22;5184;51.376;7.148;2023-07-31T07:09:23;16.20;99.90
10278;DHT22;5184;51.376;7.148;2023-07-31T07:11:50;16.20;99.90
10278;DHT22;5184;51.376;7.148;2023-07-31T07:14:17;16.20;99.90
10278;DHT22;5184;51.376;7.148;2023-07-31T07:16:43;16.20;99.90
10278;DHT22;5184;51.376;7.148;2023-07-31T07:19:11;16.30;99.90
10278;DHT22;5184;51.376;7.148;2023-07-31T07:21:38;16.20;99.90
10278;DHT22;5184;51.376;7.148;2023-07-31T07:24:05;16.20;99.90
10278;DHT22;5184;51.376;7.148;2023-07-31T07:26:32;16.20;99.90
10278;DHT22;5184;51.376;7.148;2023-07-31T07:28:58;16.10;99.90
10278;DHT22;5184;51.376;7.148;2023-07-31T07:31:25;16.10;99.90
10278;DHT22;5184;51.376;7.148;2023-07-31T07:33:52;16.10;99.90
10278;DHT22;5184;51.376;7.148;2023-07-31T07:36:20;16.10;99.90
10278;DHT22;5184;51.376;7.148;2023-07-31T07:38:47;16.00;99.90
10278;DHT22;5184;51.376;7.148;2023-07-31T07:41:14;16.10;99.90
10278;DHT22;5184;51.376;7.148;2023-07-31T07:43:41;16.00;99.90
10278;DHT22;5184;51.376;7.148;2023-07-31T07:46:08;16.00;99.90
10278;DHT22;5184;51.376;7.148;2023-07-31T07:48:34;16.00;99.90
10278;DHT22;5184;51.376;7.148;2023-07-31T07:51:01;16.00;99.90
10278;DHT22;5184;51.376;7.148;2023-07-31T07:53:27;16.00;99.90
10278;DHT22;5184;51.376;7.148;2023-07-31T07:55:55;16.10;99.90
10278;DHT22;5184;51.376;7.148;2023-07-31T07:58:22;16.20;99.90
10278;DHT22;5184;51.376;7.148;2023-07-31T08:00:51;16.20;99.90
10278;DHT22;5184;51.376;7.148;2023-07-31T08:03:17;16.20;99.90
10278;DHT22;5184;51.376;7.148;2023-07-31T08:05:44;16.20;99.90
10278;DHT22;5184;51.376;7.148;2023-07-31T08:08:14;16.10;99.90
10278;DHT22;5184;51.376;7.148;2023-07-31T08:10:38;16.10;99.90
10278;DHT22;5184;51.376;7.148;2023-07-31T08:13:05;16.10;99.90
10278;DHT22;5184;51.376;7.148;2023-07-31T08:15:33;16.20;99.90
10278;DHT22;5184;51.376;7.148;2023-07-31T08:18:00;16.10;99.90
10278;DHT22;5184;51.376;7.148;2023-07-31T08:20:27;16.20;99.90
10278;DHT22;5184;51.376;7.148;2023-07-31T08:22:54;16.20;99.90
10278;DHT22;5184;51.376;7.148;2023-07-31T08:25:21;16.20;99.90
10278;DHT22;5184;51.376;7.148;2023-07-31T08:27:47;16.20;99.90
10278;DHT22;5184;51.376;7.148;2023-07-31T08:30:14;16.20;99.90
10278;DHT22;5184;51.376;7.148;2023-07-31T08:32:40;16.30;99.90
10278;DHT22;5184;51.376;7.148;2023-07-31T08:35:08;16.30;99.90
10278;DHT22;5184;51.376;7.148;2023-07-31T08:37:35;16.30;99.90
10278;DHT22;5184;51.376;7.148;2023-07-31T08:40:02;16.30;99.90
10278;DHT22;5184;51.376;7.148;2023-07-31T08:42:29;16.30;99.90
10278;DHT22;5184;51.376;7.148;2023-07-31T08:44:56;16.30;99.90
10278;DHT22;5184;51.376;7.148;2023-07-31T08:47:25;16.20;99.90
10278;DHT22;5184;51.376;7.148;2023-07-31T08:49:50;16.20;99.90
10278;DHT22;5184;51.376;7.148;2023-07-31T08:52:16;16.20;99.90
10278;DHT22;5184;51.376;7.148;2023-07-31T08:54:43;16.20;99.90
10278;DHT22;5184;51.376;7.148;2023-07-31T08:57:10;16.30;99.90
10278;DHT22;5184;51.376;7.148;2023-07-31T08:59:36;16.20;99.90
10278;DHT22;5184;51.376;7.148;2023-07-31T09:02:05;16.20;99.90
10278;DHT22;5184;51.376;7.148;2023-07-31T09:04:31;16.20;99.90
10278;DHT22;5184;51.376;7.148;2023-07-31T09:07:00;16.20;99.90
10278;DHT22;5184;51.376;7.148;2023-07-31T09:09:26;16.20;99.90
10278;DHT22;5184;51.376;7.148;2023-07-31T09:11:53;16.30;99.90
10278;DHT22;5184;51.376;7.148;2023-07-31T09:14:20;16.30;99.90
10278;DHT22;5184;51.376;7.148;2023-07-31T09:16:55;16.30;99.90
10278;DHT22;5184;51.376;7.148;2023-07-31T09:19:27;16.20;99.90
10278;DHT22;5184;51.376;7.148;2023-07-31T09:21:53;16.20;99.90
10278;DHT22;5184;51.376;7.148;2023-07-31T09:24:29;16.10;99.90
10278;DHT22;5184;51.376;7.148;2023-07-31T09:26:56;16.20;99.90
10278;DHT22;5184;51.376;7.148;2023-07-31T09:29:22;16.10;99.90
10278;DHT22;5184;51.376;7.148;2023-07-31T09:31:49;16.10;99.90
10278;DHT22;5184;51.376;7.148;2023-07-31T09:34:15;16.10;99.90
10278;DHT22;5184;51.376;7.148;2023-07-31T09:36:42;16.20;99.90
10278;DHT22;5184;51.376;7.148;2023-07-31T09:39:10;16.20;99.90
10278;DHT22;5184;51.376;7.148;2023-07-31T09:41:38;16.30;99.90
10278;DHT22;5184;51.376;7.148;2023-07-31T09:44:05;16.20;99.90
10278;DHT22;5184;51.376;7.148;2023-07-31T09:46:34;16.20;99.90
10278;DHT22;5184;51.376;7.148;2023-07-31T09:49:05;16.20;99.90
10278;DHT22;5184;51.376;7.148;2023-07-31T09:51:32;16.30;99.90
10278;DHT22;5184;51.376;7.148;2023-07-31T09:53:59;16.30;99.90
10278;DHT22;5184;51.376;7.148;2023-07-31T09:56:26;16.30;99.90
10278;DHT22;5184;51.376;7.148;2023-07-31T09:58:52;16.30;99.90
10278;DHT22;5184;51.376;7.148;2023-07-31T10:01:19;16.40;99.90
10278;DHT22;5184;51.376;7.148;2023-07-31T10:03:45;16.40;99.90
10278;DHT22;5184;51.376;7.148;2023-07-31T10:06:12;16.40;99.90
10278;DHT22;5184;51.376;7.148;2023-07-31T10:08:39;16.50;99.90
10278;DHT22;5184;51.376;7.148;2023-07-31T10:11:07;16.50;99.90
10278;DHT22;5184;51.376;7.148;2023-07-31T10:13:33;16.50;99.90
10278;DHT22;5184;51.376;7.148;2023-07-31T10:16:00;16.50;99.90
10278;DHT22;5184;51.376;7.148;2023-07-31T10:18:26;16.50;99.90
10278;DHT22;5184;51.376;7.148;2023-07-31T10:20:54;16.50;99.90
10278;DHT22;5184;51.376;7.148;2023-07-31T10:23:20;16.50;99.90
10278;DHT22;5184;51.376;7.148;2023-07-31T10:25:47;16.60;99.90
10278;DHT22;5184;51.376;7.148;2023-07-31T10:28:14;16.60;99.90
10278;DHT22;5184;51.376;7.148;2023-07-31T10:30:41;16.60;99.90
10278;DHT22;5184;51.376;7.148;2023-07-31T10:33:07;16.60;99.90
10278;DHT22;5184;51.376;7.148;2023-07-31T10:35:34;16.50;99.90
10278;DHT22;5184;51.376;7.148;2023-07-31T10:38:09;16.50;99.90
10278;DHT22;5184;51.376;7.148;2023-07-31T10:40:36;16.40;99.90
10278;DHT22;5184;51.376;7.148;2023-07-31T10:43:02;16.30;99.90
10278;DHT22;5184;51.376;7.148;2023-07-31T10:45:35;16.40;99.90
10278;DHT22;5184;51.376;7.148;2023-07-31T10:48:04;16.30;99.90
10278;DHT22;5184;51.376;7.148;2023-07-31T10:50:30;16.40;99.90
10278;DHT22;5184;51.376;7.148;2023-07-31T10:52:57;16.40;99.90
10278;DHT22;5184;51.376;7.148;2023-07-31T10:55:25;16.40;99.90
10278;DHT22;5184;51.376;7.148;2023-07-31T10:57:52;16.40;99.90
10278;DHT22;5184;51.376;7.148;2023-07-31T11:00:23;16.40;99.90
10278;DHT22;5184;51.376;7.148;2023-07-31T11:02:57;16.50;99.90
10278;DHT22;5184;51.376;7.148;2023-07-31T11:08:10;16.60;99.90
10278;DHT22;5184;51.376;7.148;2023-07-31T11:10:31;16.60;99.90
10278;DHT22;5184;51.376;7.148;2023-07-31T11:12:58;16.70;99.90
10278;DHT22;5184;51.376;7.148;2023-07-31T11:15:26;16.70;99.90
10278;DHT22;5184;51.376;7.148;2023-07-31T11:17:53;17.00;99.90
10278;DHT22;5184;51.376;7.148;2023-07-31T11:20:20;16.80;99.90
10278;DHT22;5184;51.376;7.148;2023-07-31T11:22:47;16.80;99.90
10278;DHT22;5184;51.376;7.148;2023-07-31T11:25:14;16.90;99.90
10278;DHT22;5184;51.376;7.148;2023-07-31T11:27:41;16.90;99.90
10278;DHT22;5184;51.376;7.148;2023-07-31T11:30:07;16.90;99.90
10278;DHT22;5184;51.376;7.148;2023-07-31T11:32:36;16.90;99.90
10278;DHT22;5184;51.376;7.148;2023-07-31T11:35:00;17.00;99.90
10278;DHT22;5184;51.376;7.148;2023-07-31T11:37:42;17.00;99.90
10278;DHT22;5184;51.376;7.148;2023-07-31T11:40:08;17.10;99.90
10278;DHT22;5184;51.376;7.148;2023-07-31T11:42:36;17.10;99.90
10278;DHT22;5184;51.376;7.148;2023-07-31T11:45:04;17.10;99.90
10278;DHT22;5184;51.376;7.148;2023-07-31T11:47:32;17.20;99.90
10278;DHT22;5184;51.376;7.148;2023-07-31T11:49:57;17.20;99.90
10278;DHT22;5184;51.376;7.148;2023-07-31T11:52:24;17.20;99.90
10278;DHT22;5184;51.376;7.148;2023-07-31T11:54:51;17.20;99.90
10278;DHT22;5184;51.376;7.148;2023-07-31T11:57:18;17.20;99.90
10278;DHT22;5184;51.376;7.148;2023-07-31T11:59:45;17.20;99.90
10278;DHT22;5184;51.376;7.148;2023-07-31T12:02:11;17.30;99.90
10278;DHT22;5184;51.376;7.148;2023-07-31T12:04:38;17.30;99.90
10278;DHT22;5184;51.376;7.148;2023-07-31T12:07:05;17.40;99.90
10278;DHT22;5184;51.376;7.148;2023-07-31T12:09:31;17.50;99.90
10278;DHT22;5184;51.376;7.148;2023-07-31T12:11:59;17.60;99.90
10278;DHT22;5184;51.376;7.148;2023-07-31T12:14:27;17.60;99.90
10278;DHT22;5184;51.376;7.148;2023-07-31T12:16:58;17.60;99.90
10278;DHT22;5184;51.376;7.148;2023-07-31T12:19:25;17.70;99.90
10278;DHT22;5184;51.376;7.148;2023-07-31T12:21:52;17.70;99.90
10278;DHT22;5184;51.376;7.148;2023-07-31T12:24:19;17.50;99.90
10278;DHT22;5184;51.376;7.148;2023-07-31T12:26:46;17.50;99.90
10278;DHT22;5184;51.376;7.148;2023-07-31T12:29:13;17.40;99.90
10278;DHT22;5184;51.376;7.148;2023-07-31T12:31:41;17.40;99.90
10278;DHT22;5184;51.376;7.148;2023-07-31T12:34:15;17.40;99.90
10278;DHT22;5184;51.376;7.148;2023-07-31T12:36:40;17.30;99.90
10278;DHT22;5184;51.376;7.148;2023-07-31T12:39:07;17.40;99.90
10278;DHT22;5184;51.376;7.148;2023-07-31T12:41:34;17.40;99.90
10278;DHT22;5184;51.376;7.148;2023-07-31T12:44:00;17.40;99.90
10278;DHT22;5184;51.376;7.148;2023-07-31T12:46:27;17.40;99.90
10278;DHT22;5184;51.376;7.148;2023-07-31T12:48:53;17.30;99.90
10278;DHT22;5184;51.376;7.148;2023-07-31T12:51:20;17.40;99.90
10278;DHT22;5184;51.376;7.148;2023-07-31T12:53:47;17.50;99.90
10278;DHT22;5184;51.376;7.148;2023-07-31T12:56:15;17.60;99.90
10278;DHT22;5184;51.376;7.148;2023-07-31T12:58:42;17.70;99.90
10278;DHT22;5184;51.376;7.148;2023-07-31T13:01:09;17.70;99.90
10278;DHT22;5184;51.376;7.148;2023-07-31T13:03:35;17.70;99.90
10278;DHT22;5184;51.376;7.148;2023-07-31T13:06:02;17.70;99.90
10278;DHT22;5184;51.376;7.148;2023-07-31T13:08:28;17.60;99.90
10278;DHT22;5184;51.376;7.148;2023-07-31T13:10:55;17.60;99.90
10278;DHT22;5184;51.376;7.148;2023-07-31T13:13:22;17.50;99.90
10278;DHT22;5184;51.376;7.148;2023-07-31T13:15:48;17.40;99.90
10278;DHT22;5184;51.376;7.148;2023-07-31T13:18:15;17.40;99.90
10278;DHT22;5184;51.376;7.148;2023-07-31T13:20:41;17.40;99.90
10278;DHT22;5184;51.376;7.148;2023-07-31T13:23:08;17.40;99.90
10278;DHT22;5184;51.376;7.148;2023-07-31T13:25:35;17.40;99.90
10278;DHT22;5184;51.376;7.148;2023-07-31T13:28:03;17.40;99.90
10278;DHT22;5184;51.376;7.148;2023-07-31T13:30:29;17.40;99.90
10278;DHT22;5184;51.376;7.148;2023-07-31T13:32:56;17.40;99.90
10278;DHT22;5184;51.376;7.148;2023-07-31T13:35:23;17.50;99.90
10278;DHT22;5184;51.376;7.148;2023-07-31T13:37:49;17.50;99.90
10278;DHT22;5184;51.376;7.148;2023-07-31T13:40:17;17.50;99.90
10278;DHT22;5184;51.376;7.148;2023-07-31T13:42:43;17.50;99.90
10278;DHT22;5184;51.376;7.148;2023-07-31T13:45:10;17.60;99.90
10278;DHT22;5184;51.376;7.148;2023-07-31T13:47:37;17.70;99.90
10278;DHT22;5184;51.376;7.148;2023-07-31T13:50:03;17.70;99.90
10278;DHT22;5184;51.376;7.148;2023-07-31T13:52:31;18.00;99.90
10278;DHT22;5184;51.376;7.148;2023-07-31T13:54:58;18.10;99.90
10278;DHT22;5184;51.376;7.148;2023-07-31T13:57:25;18.10;99.90
10278;DHT22;5184;51.376;7.148;2023-07-31T13:59:51;18.20;99.90
10278;DHT22;5184;51.376;7.148;2023-07-31T14:02:18;18.10;99.90
10278;DHT22;5184;51.376;7.148;2023-07-31T14:04:45;18.20;99.90
10278;DHT22;5184;51.376;7.148;2023-07-31T14:07:11;18.20;99.90
10278;DHT22;5184;51.376;7.148;2023-07-31T14:09:38;18.20;99.90
10278;DHT22;5184;51.376;7.148;2023-07-31T14:12:06;18.30;99.90
10278;DHT22;5184;51.376;7.148;2023-07-31T14:14:32;18.30;99.90
10278;DHT22;5184;51.376;7.148;2023-07-31T14:16:59;18.50;99.90
10278;DHT22;5184;51.376;7.148;2023-07-31T14:19:26;18.70;99.90
10278;DHT22;5184;51.376;7.148;2023-07-31T14:21:53;19.00;99.90
10278;DHT22;5184;51.376;7.148;2023-07-31T14:24:20;19.10;99.90
10278;DHT22;5184;51.376;7.148;2023-07-31T14:26:47;19.00;99.90
10278;DHT22;5184;51.376;7.148;2023-07-31T14:29:14;19.00;99.90
10278;DHT22;5184;51.376;7.148;2023-07-31T14:31:40;19.00;99.90
10278;DHT22;5184;51.376;7.148;2023-07-31T14:34:07;19.00;99.90
10278;DHT22;5184;51.376;7.148;2023-07-31T14:36:33;18.80;99.90
10278;DHT22;5184;51.376;7.148;2023-07-31T14:39:00;18.80;99.90
10278;DHT22;5184;51.376;7.148;2023-07-31T14:41:27;18.70;99.90
10278;DHT22;5184;51.376;7.148;2023-07-31T14:43:53;18.70;99.90
10278;DHT22;5184;51.376;7.148;2023-07-31T14:46:20;18.60;99.90
10278;DHT22;5184;51.376;7.148;2023-07-31T14:48:46;18.60;99.90
10278;DHT22;5184;51.376;7.148;2023-07-31T14:51:14;18.50;99.90
10278;DHT22;5184;51.376;7.148;2023-07-31T14:53:41;18.50;99.90
10278;DHT22;5184;51.376;7.148;2023-07-31T14:56:08;18.50;99.90
10278;DHT22;5184;51.376;7.148;2023-07-31T14:58:36;18.40;99.90
10278;DHT22;5184;51.376;7.148;2023-07-31T15:01:02;18.30;99.90
10278;DHT22;5184;51.376;7.148;2023-07-31T15:03:29;18.30;99.90
10278;DHT22;5184;51.376;7.148;2023-07-31T15:05:56;18.30;99.90
10278;DHT22;5184;51.376;7.148;2023-07-31T15:08:22;18.30;99.90
10278;DHT22;5184;51.376;7.148;2023-07-31T15:10:49;18.20;99.90
10278;DHT22;5184;51.376;7.148;2023-07-31T15:13:16;18.20;99.90
10278;DHT22;5184;51.376;7.148;2023-07-31T15:15:44;18.20;99.90
10278;DHT22;5184;51.376;7.148;2023-07-31T15:18:11;18.30;99.90
10278;DHT22;5184;51.376;7.148;2023-07-31T15:20:38;18.30;99.90
10278;DHT22;5184;51.376;7.148;2023-07-31T15:23:04;18.40;99.90
10278;DHT22;5184;51.376;7.148;2023-07-31T15:25:31;18.40;99.90
10278;DHT22;5184;51.376;7.148;2023-07-31T15:27:57;18.50;99.90
10278;DHT22;5184;51.376;7.148;2023-07-31T15:30:25;18.50;99.90
10278;DHT22;5184;51.376;7.148;2023-07-31T15:32:52;18.50;99.90
10278;DHT22;5184;51.376;7.148;2023-07-31T15:35:19;18.60;99.90
10278;DHT22;5184;51.376;7.148;2023-07-31T15:37:45;18.60;99.90
10278;DHT22;5184;51.376;7.148;2023-07-31T15:40:12;18.60;99.90
10278;DHT22;5184;51.376;7.148;2023-07-31T15:42:39;18.60;99.90
10278;DHT22;5184;51.376;7.148;2023-07-31T15:45:06;18.60;99.90
10278;DHT22;5184;51.376;7.148;2023-07-31T15:47:33;18.60;99.90